createdAt,value
2019-02-20T00:00:24.958Z,100.00
2019-02-20T00:03:00.815Z,100.00
2019-02-20T00:05:31.223Z,100.00
2019-02-20T00:08:04.819Z,100.00
2019-02-20T00:10:36.608Z,100.00
2019-02-20T00:13:08.449Z,100.00
2019-02-20T00:15:38.307Z,100.00
2019-02-20T00:18:08.510Z,100.00
2019-02-20T00:20:38.590Z,100.00
2019-02-20T00:23:10.865Z,100.00
2019-02-20T00:25:41.938Z,100.00
2019-02-20T00:28:13.026Z,100.00
2019-02-20T00:30:43.976Z,100.00
2019-02-20T00:33:19.447Z,100.00
2019-02-20T00:35:53.123Z,100.00
2019-02-20T00:38:24.923Z,100.00
2019-02-20T00:40:56.683Z,100.00
2019-02-20T00:43:31.005Z,100.00
2019-02-20T00:46:11.297Z,100.00
2019-02-20T00:48:52.671Z,100.00
2019-02-20T00:51:34.653Z,100.00
2019-02-20T00:54:09.496Z,100.00
2019-02-20T00:56:41.195Z,100.00
2019-02-20T00:59:13.088Z,100.00
2019-02-20T01:01:46.965Z,100.00
2019-02-20T01:04:21.690Z,100.00
2019-02-20T01:07:02.672Z,100.00
2019-02-20T01:09:32.925Z,100.00
2019-02-20T01:12:07.822Z,100.00
2019-02-20T01:14:41.997Z,100.00
2019-02-20T01:17:20.159Z,100.00
2019-02-20T01:19:50.915Z,100.00
2019-02-20T01:22:27.428Z,100.00
2019-02-20T01:25:02.651Z,100.00
2019-02-20T01:27:38.044Z,100.00
2019-02-20T01:30:13.195Z,100.00
2019-02-20T01:32:48.275Z,100.00
2019-02-20T01:35:19.415Z,100.00
2019-02-20T01:37:52.922Z,100.00
2019-02-20T01:40:22.694Z,100.00
2019-02-20T01:42:55.306Z,100.00
2019-02-20T01:45:25.097Z,100.00
2019-02-20T01:47:55.004Z,100.00
2019-02-20T01:50:24.922Z,100.00
2019-02-20T01:52:54.841Z,100.00
2019-02-20T01:55:28.009Z,100.00
2019-02-20T01:57:59.382Z,100.00
2019-02-20T02:00:29.294Z,100.00
2019-02-20T02:02:59.090Z,100.00
2019-02-20T02:05:29.877Z,100.00
2019-02-20T02:08:04.266Z,100.00
2019-02-20T02:10:36.310Z,100.00
2019-02-20T02:13:06.185Z,100.00
2019-02-20T02:15:36.264Z,100.00
2019-02-20T02:18:06.184Z,100.00
2019-02-20T02:20:39.293Z,100.00
2019-02-20T02:23:09.185Z,100.00
2019-02-20T02:25:45.787Z,100.00
2019-02-20T02:28:16.385Z,100.00
2019-02-20T02:30:46.306Z,100.00
2019-02-20T02:33:16.585Z,100.00
2019-02-20T02:35:50.214Z,100.00
2019-02-20T02:38:22.537Z,100.00
2019-02-20T02:40:52.811Z,100.00
2019-02-20T02:43:22.753Z,100.00
2019-02-20T02:45:52.562Z,100.00
2019-02-20T02:48:23.082Z,100.00
2019-02-20T02:50:53.263Z,100.00
2019-02-20T02:53:30.245Z,100.00
2019-02-20T02:55:57.271Z,100.00
2019-02-20T02:58:27.085Z,100.00
2019-02-20T03:00:59.137Z,100.00
2019-02-20T03:03:34.662Z,100.00
2019-02-20T03:06:05.811Z,100.00
2019-02-20T03:08:35.833Z,100.00
2019-02-20T03:11:06.790Z,100.00
2019-02-20T03:13:36.631Z,100.00
2019-02-20T03:16:09.203Z,100.00
2019-02-20T03:18:39.046Z,100.00
2019-02-20T03:21:09.085Z,100.00
2019-02-20T03:23:41.566Z,100.00
2019-02-20T03:26:12.312Z,100.00
2019-02-20T03:28:43.034Z,100.00
2019-02-20T03:31:14.654Z,100.00
2019-02-20T03:33:48.238Z,100.00
2019-02-20T03:36:22.510Z,100.00
2019-02-20T03:38:56.252Z,100.00
2019-02-20T03:41:26.123Z,100.00
2019-02-20T03:43:59.790Z,100.00
2019-02-20T03:46:29.570Z,100.00
2019-02-20T03:48:59.354Z,100.00
2019-02-20T03:51:29.266Z,100.00
2019-02-20T03:54:02.355Z,100.00
2019-02-20T03:56:33.187Z,100.00
2019-02-20T03:59:03.081Z,100.00
2019-02-20T04:01:32.907Z,100.00
2019-02-20T04:04:02.783Z,100.00
2019-02-20T04:06:34.820Z,100.00
2019-02-20T04:09:07.391Z,100.00
2019-02-20T04:11:42.819Z,100.00
2019-02-20T04:14:15.334Z,100.00
2019-02-20T04:16:45.126Z,100.00
2019-02-20T04:19:15.042Z,100.00
2019-02-20T04:21:45.050Z,100.00
2019-02-20T04:24:14.834Z,100.00
2019-02-20T04:26:47.338Z,100.00
2019-02-20T04:29:19.405Z,100.00
2019-02-20T04:31:50.484Z,100.00
2019-02-20T04:34:23.402Z,100.00
2019-02-20T04:36:55.908Z,100.00
2019-02-20T04:39:27.885Z,100.00
2019-02-20T04:42:03.472Z,100.00
2019-02-20T04:44:40.539Z,100.00
2019-02-20T04:47:21.752Z,100.00
2019-02-20T04:49:50.728Z,100.00
2019-02-20T04:52:25.179Z,100.00
2019-02-20T04:54:58.545Z,100.00
2019-02-20T04:57:33.926Z,100.00
2019-02-20T05:00:05.057Z,100.00
2019-02-20T05:02:44.904Z,100.00
2019-02-20T05:05:17.847Z,100.00
2019-02-20T05:07:48.936Z,100.00
2019-02-20T05:10:24.178Z,100.00
2019-02-20T05:12:58.861Z,100.00
2019-02-20T05:15:31.430Z,100.00
2019-02-20T05:18:01.920Z,100.00
2019-02-20T05:20:39.585Z,100.00
2019-02-20T05:23:09.449Z,100.00
2019-02-20T05:25:44.307Z,100.00
2019-02-20T05:28:14.138Z,100.00
2019-02-20T05:30:43.903Z,100.00
2019-02-20T05:33:16.689Z,100.00
2019-02-20T05:35:46.502Z,100.00
2019-02-20T05:38:18.769Z,100.00
2019-02-20T05:40:51.071Z,100.00
2019-02-20T05:43:28.228Z,100.00
2019-02-20T05:45:58.053Z,100.00
2019-02-20T05:48:27.959Z,100.00
2019-02-20T05:50:57.769Z,100.00
2019-02-20T05:53:31.619Z,100.00
2019-02-20T05:56:09.487Z,100.00
2019-02-20T05:58:39.397Z,100.00
2019-02-20T06:01:09.203Z,100.00
2019-02-20T06:03:43.976Z,100.00
2019-02-20T06:06:15.184Z,100.00
2019-02-20T06:08:51.148Z,100.00
2019-02-20T06:11:25.056Z,100.00
2019-02-20T06:13:54.868Z,100.00
2019-02-20T06:16:24.834Z,100.00
2019-02-20T06:18:57.754Z,100.00
2019-02-20T06:21:30.220Z,100.00
2019-02-20T06:24:02.715Z,100.00
2019-02-20T06:26:37.205Z,100.00
2019-02-20T06:29:18.887Z,100.00
2019-02-20T06:31:50.535Z,100.00
2019-02-20T06:34:26.007Z,100.00
2019-02-20T06:36:57.078Z,100.00
2019-02-20T06:39:30.085Z,100.00
2019-02-20T06:41:59.933Z,100.00
2019-02-20T06:44:29.896Z,100.00
2019-02-20T06:47:15.225Z,100.00
2019-02-20T06:49:50.995Z,100.00
2019-02-20T06:52:30.394Z,100.00
2019-02-20T06:55:07.692Z,100.00
2019-02-20T06:57:55.159Z,100.00
2019-02-20T07:00:29.798Z,100.00
2019-02-20T07:03:12.727Z,100.00
2019-02-20T07:05:41.610Z,100.00
2019-02-20T07:08:41.981Z,100.00
2019-02-20T07:11:26.256Z,100.00
2019-02-20T07:14:01.312Z,100.00
2019-02-20T07:17:24.254Z,100.00
2019-02-20T07:20:43.396Z,100.00
2019-02-20T07:23:43.330Z,97.61
2019-02-20T07:26:39.571Z,92.39
2019-02-20T07:29:28.679Z,88.51
2019-02-20T07:32:04.005Z,83.62
2019-02-20T07:34:35.397Z,78.33
2019-02-20T07:37:12.762Z,73.97
2019-02-20T07:39:48.511Z,71.87
2019-02-20T07:42:26.357Z,69.31
2019-02-20T07:44:57.551Z,67.13
2019-02-20T07:47:34.618Z,66.19
2019-02-20T07:50:12.290Z,66.49
2019-02-20T07:52:43.356Z,65.11
2019-02-20T07:55:15.741Z,63.73
2019-02-20T07:57:49.203Z,63.73
2019-02-20T08:00:24.438Z,61.76
2019-02-20T08:02:55.698Z,59.52
2019-02-20T08:05:25.783Z,59.54
2019-02-20T08:07:57.881Z,58.36
2019-02-20T08:10:52.679Z,58.34
2019-02-20T08:13:27.388Z,58.45
2019-02-20T08:16:04.486Z,57.97
2019-02-20T08:18:38.890Z,57.34
2019-02-20T08:21:13.832Z,58.52
2019-02-20T08:23:55.724Z,57.48
2019-02-20T08:26:34.410Z,54.72
2019-02-20T08:29:19.455Z,52.55
2019-02-20T08:32:18.051Z,52.34
2019-02-20T08:35:10.191Z,54.79
2019-02-20T08:37:57.829Z,53.54
2019-02-20T08:40:50.316Z,53.78
2019-02-20T08:43:21.083Z,52.17
2019-02-20T08:45:58.650Z,51.52
2019-02-20T08:48:33.104Z,53.67
2019-02-20T08:51:14.417Z,50.38
2019-02-20T08:53:44.292Z,50.67
2019-02-20T08:56:35.761Z,47.27
2019-02-20T08:59:15.098Z,45.73
2019-02-20T09:01:46.398Z,48.51
2019-02-20T09:04:21.396Z,49.14
2019-02-20T09:06:53.853Z,47.10
2019-02-20T09:09:30.104Z,49.26
2019-02-20T09:12:03.893Z,45.85
2019-02-20T09:14:43.985Z,45.83
2019-02-20T09:17:23.019Z,44.49
2019-02-20T09:19:55.670Z,45.88
2019-02-20T09:22:43.555Z,46.60
2019-02-20T09:25:19.974Z,46.21
2019-02-20T09:27:51.114Z,44.17
2019-02-20T09:30:36.293Z,46.78
2019-02-20T09:33:30.310Z,46.94
2019-02-20T09:36:15.946Z,45.20
2019-02-20T09:38:55.369Z,44.84
2019-02-20T09:41:27.074Z,43.41
2019-02-20T09:43:59.558Z,41.52
2019-02-20T09:46:29.945Z,40.37
2019-02-20T09:49:08.008Z,40.14
2019-02-20T09:51:47.684Z,41.47
2019-02-20T09:54:34.097Z,39.54
2019-02-20T09:57:23.287Z,38.85
2019-02-20T09:59:57.819Z,40.05
2019-02-20T10:02:43.180Z,38.41
2019-02-20T10:05:18.892Z,43.50
2019-02-20T10:07:49.024Z,47.92
2019-02-20T10:10:41.248Z,47.01
2019-02-20T10:13:19.285Z,50.90
2019-02-20T10:16:07.616Z,47.61
2019-02-20T10:19:01.459Z,43.34
2019-02-20T10:21:56.644Z,40.76
2019-02-20T10:24:54.473Z,38.92
2019-02-20T10:27:40.950Z,39.34
2019-02-20T10:30:25.309Z,43.18
2019-02-20T10:33:22.605Z,42.33
2019-02-20T10:36:09.169Z,42.70
2019-02-20T10:38:57.914Z,41.06
2019-02-20T10:41:51.417Z,38.70
2019-02-20T10:44:26.434Z,37.05
2019-02-20T10:47:09.545Z,38.39
2019-02-20T10:49:53.963Z,38.51
2019-02-20T10:52:42.686Z,42.66
2019-02-20T10:55:32.474Z,41.83
2019-02-20T10:58:10.151Z,41.38
2019-02-20T11:00:44.827Z,39.79
2019-02-20T11:03:25.885Z,40.85
2019-02-20T11:06:12.845Z,40.00
2019-02-20T11:08:59.252Z,39.05
2019-02-20T11:11:54.538Z,37.40
2019-02-20T11:14:52.433Z,38.97
2019-02-20T11:17:51.190Z,40.26
2019-02-20T11:20:48.264Z,42.98
2019-02-20T11:23:23.722Z,41.72
2019-02-20T11:26:18.327Z,40.24
2019-02-20T11:29:22.633Z,40.02
2019-02-20T11:32:17.472Z,38.88
2019-02-20T11:35:11.811Z,39.47
2019-02-20T11:37:55.786Z,38.44
2019-02-20T11:40:30.183Z,39.76
2019-02-20T11:43:11.592Z,39.67
2019-02-20T11:45:48.988Z,38.23
2019-02-20T11:48:39.788Z,40.77
2019-02-20T11:51:17.047Z,43.02
2019-02-20T11:53:50.570Z,45.01
2019-02-20T11:56:38.747Z,44.92
2019-02-20T11:59:46.241Z,40.74
2019-02-20T12:02:37.340Z,39.14
2019-02-20T12:05:27.419Z,38.62
2019-02-20T12:08:07.686Z,37.02
2019-02-20T12:10:55.354Z,37.13
2019-02-20T12:13:52.222Z,38.13
2019-02-20T12:16:52.434Z,38.40
2019-02-20T12:19:44.978Z,38.12
2019-02-20T12:22:34.698Z,36.60
2019-02-20T12:25:29.830Z,35.66
2019-02-20T12:28:26.481Z,35.84
2019-02-20T12:31:20.178Z,35.50
2019-02-20T12:34:19.841Z,38.03
2019-02-20T12:37:17.215Z,38.34
2019-02-20T12:40:15.233Z,37.51
2019-02-20T12:43:08.145Z,37.39
2019-02-20T12:45:54.916Z,38.54
2019-02-20T12:49:01.459Z,41.63
2019-02-20T12:51:36.816Z,41.74
2019-02-20T12:54:30.361Z,38.42
2019-02-20T13:03:26.245Z,38.66
2019-02-20T13:06:11.909Z,38.64
2019-02-20T13:08:50.342Z,37.76
2019-02-20T13:11:29.498Z,38.94
2019-02-20T13:14:05.736Z,37.30
2019-02-20T13:16:44.545Z,36.28
2019-02-20T13:19:30.763Z,37.38
2019-02-20T13:22:20.167Z,38.00
2019-02-20T13:24:57.885Z,37.73
2019-02-20T13:27:40.245Z,37.93
2019-02-20T13:30:20.519Z,37.79
2019-02-20T13:35:57.234Z,36.98
2019-02-20T13:38:31.948Z,38.89
2019-02-20T13:41:03.617Z,40.69
2019-02-20T13:43:38.665Z,40.17
2019-02-20T13:46:15.924Z,38.71
2019-02-20T13:48:50.640Z,37.51
2019-02-20T13:51:28.602Z,36.75
2019-02-20T13:54:06.929Z,37.43
2019-02-20T13:56:42.641Z,37.23
2019-02-20T13:59:25.127Z,36.94
2019-02-20T14:02:07.511Z,36.77
2019-02-20T14:04:44.319Z,37.17
2019-02-20T14:07:20.792Z,37.02
2019-02-20T14:09:54.443Z,36.74
2019-02-20T14:12:25.323Z,37.31
2019-02-20T14:15:02.443Z,36.90
2019-02-20T14:17:35.663Z,36.32
2019-02-20T14:20:11.642Z,37.62
2019-02-20T14:22:50.704Z,37.60
2019-02-20T14:25:25.817Z,38.28
2019-02-20T14:27:57.133Z,40.41
2019-02-20T14:30:30.322Z,41.07
2019-02-20T14:33:00.695Z,42.74
2019-02-20T14:35:32.840Z,43.40
2019-02-20T14:38:02.355Z,43.80
2019-02-20T14:40:32.544Z,45.43
2019-02-20T14:43:02.931Z,46.57
2019-02-20T14:45:36.757Z,48.44
2019-02-20T14:48:12.022Z,50.98
2019-02-20T14:50:46.139Z,51.20
2019-02-20T14:53:23.744Z,51.57
2019-02-20T14:56:01.675Z,52.27
2019-02-20T14:58:42.613Z,55.11
2019-02-20T15:01:16.791Z,54.52
2019-02-20T15:03:53.279Z,53.88
2019-02-20T15:06:32.194Z,54.12
2019-02-20T15:09:10.310Z,54.77
2019-02-20T15:11:52.108Z,54.04
2019-02-20T15:14:32.505Z,55.05
2019-02-20T15:17:09.646Z,55.83
2019-02-20T15:19:45.894Z,55.59
2019-02-20T15:22:20.602Z,54.63
2019-02-20T15:25:02.174Z,55.53
2019-02-20T15:27:38.442Z,55.79
2019-02-20T15:30:21.128Z,56.92
2019-02-20T15:32:58.453Z,56.69
2019-02-20T15:35:33.124Z,56.60
2019-02-20T15:38:10.911Z,57.11
2019-02-20T15:40:47.126Z,57.49
2019-02-20T15:43:26.626Z,56.27
2019-02-20T15:46:06.567Z,57.05
2019-02-20T15:48:41.811Z,57.81
2019-02-20T15:51:24.243Z,57.95
2019-02-20T15:53:59.242Z,57.88
2019-02-20T15:56:34.547Z,58.14
2019-02-20T15:59:10.532Z,58.01
2019-02-20T16:01:50.912Z,58.63
2019-02-20T16:04:31.645Z,58.53
2019-02-20T16:07:07.283Z,58.77
2019-02-20T16:09:43.925Z,60.65
2019-02-20T16:12:19.555Z,58.44
2019-02-20T16:14:55.843Z,58.76
2019-02-20T16:17:37.783Z,59.12
2019-02-20T16:20:17.168Z,59.08
2019-02-20T16:22:52.646Z,59.25
2019-02-20T16:25:30.173Z,58.82
2019-02-20T16:28:05.785Z,58.86
2019-02-20T16:30:46.628Z,58.51
2019-02-20T16:33:29.532Z,58.97
2019-02-20T16:36:01.936Z,59.67
2019-02-20T16:38:37.734Z,60.78
2019-02-20T16:41:15.013Z,64.43
2019-02-20T16:43:48.765Z,61.28
2019-02-20T16:46:25.978Z,60.77
2019-02-20T16:49:01.944Z,61.53
2019-02-20T16:51:34.104Z,61.75
2019-02-20T16:54:10.102Z,60.12
2019-02-20T16:56:44.441Z,59.25
2019-02-20T16:59:14.859Z,58.94
2019-02-20T17:01:50.441Z,59.14
2019-02-20T17:04:23.878Z,59.21
2019-02-20T17:06:57.076Z,59.75
2019-02-20T17:09:31.081Z,59.44
2019-02-20T17:12:06.185Z,59.14
2019-02-20T17:14:38.858Z,59.79
2019-02-20T17:17:20.817Z,60.19
2019-02-20T17:20:05.759Z,60.79
2019-02-20T17:22:41.893Z,61.16
2019-02-20T17:25:17.200Z,61.88
2019-02-20T17:27:54.948Z,61.37
2019-02-20T17:30:30.177Z,62.00
2019-02-20T17:33:11.911Z,61.81
2019-02-20T17:35:46.611Z,62.37
2019-02-20T17:38:29.254Z,63.18
2019-02-20T17:41:05.319Z,63.66
2019-02-20T17:43:42.246Z,65.06
2019-02-20T17:46:16.258Z,66.77
2019-02-20T17:48:48.327Z,68.70
2019-02-20T17:51:20.266Z,69.22
2019-02-20T17:53:52.769Z,69.69
2019-02-20T17:56:28.522Z,70.03
2019-02-20T17:59:04.259Z,70.39
2019-02-20T18:01:35.278Z,71.39
2019-02-20T18:04:14.280Z,71.16
2019-02-20T18:06:48.766Z,71.77
2019-02-20T18:09:23.877Z,72.01
2019-02-20T18:12:03.275Z,72.07
2019-02-20T18:14:37.678Z,69.48
2019-02-20T18:17:19.409Z,68.93
2019-02-20T18:19:53.043Z,68.82
2019-02-20T18:22:38.698Z,68.96
2019-02-20T18:25:15.907Z,68.94
2019-02-20T18:27:47.338Z,69.01
2019-02-20T18:30:21.118Z,69.05
2019-02-20T18:32:52.067Z,69.19
2019-02-20T18:35:22.763Z,69.32
2019-02-20T18:37:55.742Z,69.20
2019-02-20T18:40:26.512Z,69.79
2019-02-20T18:42:58.748Z,72.07
2019-02-20T18:45:29.451Z,74.15
2019-02-20T18:47:59.946Z,75.55
2019-02-20T18:50:33.996Z,76.71
2019-02-20T18:53:05.799Z,78.07
2019-02-20T18:55:37.127Z,78.47
2019-02-20T18:58:11.236Z,77.80
2019-02-20T19:00:44.439Z,78.04
2019-02-20T19:03:23.048Z,79.00
2019-02-20T19:05:58.574Z,80.23
2019-02-20T19:08:45.377Z,79.27
2019-02-20T19:11:39.944Z,79.90
2019-02-20T19:14:32.740Z,79.91
2019-02-20T19:17:23.349Z,79.57
2019-02-20T19:20:20.475Z,79.96
2019-02-20T19:23:15.719Z,80.42
2019-02-20T19:26:10.180Z,79.46
2019-02-20T19:28:44.614Z,80.25
2019-02-20T19:32:00.105Z,81.70
2019-02-20T19:35:08.101Z,83.03
2019-02-20T19:38:31.858Z,81.58
2019-02-20T19:41:38.293Z,80.01
2019-02-20T19:44:43.209Z,80.83
2019-02-20T19:48:02.841Z,82.99
2019-02-20T19:51:18.763Z,83.44
2019-02-20T19:54:13.640Z,84.53
2019-02-20T19:57:08.858Z,83.40
2019-02-20T20:00:28.715Z,83.40
2019-02-20T20:03:26.182Z,84.40
2019-02-20T20:06:38.252Z,85.94
2019-02-20T20:09:41.008Z,83.56
2019-02-20T20:12:51.043Z,83.73
2019-02-20T20:16:01.372Z,84.92
2019-02-20T20:19:27.532Z,86.56
2019-02-20T20:22:37.914Z,85.11
2019-02-20T20:25:35.051Z,84.79
2019-02-20T20:28:52.295Z,86.99
2019-02-20T20:35:11.419Z,85.49
2019-02-20T20:41:36.795Z,82.02
2019-02-20T20:44:58.627Z,82.20
2019-02-20T20:47:50.239Z,83.41
2019-02-20T20:51:11.447Z,83.49
2019-02-20T20:53:56.178Z,81.85
2019-02-20T20:57:00.391Z,81.28
2019-02-20T20:59:48.100Z,80.76
2019-02-20T21:02:25.940Z,80.61
2019-02-20T21:05:20.487Z,81.81
2019-02-20T21:08:21.242Z,81.81
2019-02-20T21:10:58.060Z,81.85
2019-02-20T21:13:40.260Z,80.91
2019-02-20T21:16:29.400Z,84.85
2019-02-20T21:19:30.505Z,89.01
2019-02-20T21:22:38.673Z,90.39
2019-02-20T21:28:51.054Z,92.72
2019-02-20T21:32:24.047Z,93.68
2019-02-20T21:35:26.573Z,93.96
2019-02-20T21:38:59.657Z,93.72
2019-02-20T21:41:57.561Z,93.85
2019-02-20T21:48:19.421Z,94.54
2019-02-20T21:51:21.144Z,93.96
2019-02-20T21:54:14.884Z,94.02
2019-02-20T21:57:04.810Z,94.35
2019-02-20T22:00:08.762Z,95.54
2019-02-20T22:02:52.806Z,96.30
2019-02-20T22:05:58.472Z,95.75
2019-02-20T22:09:23.191Z,96.71
2019-02-20T22:12:22.903Z,96.60
2019-02-20T22:15:14.763Z,95.05
2019-02-20T22:18:16.255Z,93.29
2019-02-20T22:21:21.373Z,92.62
2019-02-20T22:24:10.663Z,92.13
2019-02-20T22:27:07.089Z,93.66
2019-02-20T22:30:02.441Z,95.65
2019-02-20T22:32:57.566Z,97.33
2019-02-20T22:36:07.700Z,97.85
2019-02-20T22:39:06.574Z,98.53
2019-02-20T22:42:03.213Z,97.91
2019-02-20T22:45:03.970Z,98.32
2019-02-20T22:48:01.894Z,97.71
2019-02-20T22:50:53.641Z,98.05
2019-02-20T22:53:51.036Z,97.73
2019-02-20T22:56:48.925Z,98.59
2019-02-20T23:00:01.379Z,99.89
2019-02-20T23:02:57.924Z,100.00
2019-02-20T23:06:11.173Z,100.00
2019-02-20T23:09:13.114Z,100.00
2019-02-20T23:12:07.274Z,100.00
2019-02-20T23:14:56.589Z,99.84
2019-02-20T23:17:40.743Z,99.00
2019-02-20T23:20:35.645Z,99.83
2019-02-20T23:23:18.102Z,100.00
2019-02-20T23:26:01.646Z,100.00
2019-02-20T23:28:51.348Z,100.00
2019-02-20T23:31:23.310Z,100.00
2019-02-20T23:34:05.054Z,100.00
2019-02-20T23:36:48.984Z,100.00
2019-02-20T23:39:44.118Z,100.00
2019-02-20T23:42:18.961Z,100.00
2019-02-20T23:44:58.742Z,100.00
2019-02-20T23:48:07.143Z,100.00
2019-02-20T23:50:46.164Z,100.00
2019-02-20T23:53:25.318Z,100.00
2019-02-20T23:58:56.970Z,100.00
